Zeycan Ana — 9HA2489 — position and weather

sailwx.info

Track history (hours):
 
Tides and Currents Weather Stations Pressure Air Temp Water Temp Dewpoint Dewpoint Depression Visibility Wind Speed Wind Dir Waves Ship Positions

Zeycan Ana

Last reported at 2018-Aug-14 23:30 UTC. Time now 2018-Aug-14 23:43 UTC.
Position N 51°07' W 004°33'.

Length 122 m; draft 8 m.

Type: Cargo ship. MMSI: 248737000.

Date/timePositionNaut miles runAvg speedWind from/ knotsBaromVisibWave heightAir tempDewpointWater temp
2018-Aug-14 23:30N 51°07' W 004°33'3 7.0
2018-Aug-14 23:00N 51°04' W 004°37'4 7.3
2018-Aug-14 22:31N 51°02' W 004°41'4 8.9
2018-Aug-14 22:01N 50°59' W 004°47'5 9.5
2018-Aug-14 21:31N 50°56' W 004°52'5 9.9
2018-Aug-14 21:01N 50°53' W 004°58'510.2
2018-Aug-14 20:31N 50°49' W 005°05'510.6
2018-Aug-14 20:01N 50°46' W 005°11'510.8
2018-Aug-14 19:30N 50°43' W 005°18'510.9
2018-Aug-14 19:01N 50°39' W 005°24'611.1
2018-Aug-14 18:31N 50°35' W 005°31'611.5
2018-Aug-14 17:59N 50°32' W 005°38'611.4
2018-Aug-14 17:30N 50°27' W 005°43'611.7
2018-Aug-14 17:00N 50°23' W 005°49'611.2
2018-Aug-14 16:30N 50°17' W 005°52'611.6
2018-Aug-14 16:00N 50°12' W 005°53'611.8
2018-Aug-14 15:28N 50°06' W 005°53'611.8
2018-Aug-14 15:00N 49°60' W 005°52'510.2
2018-Aug-14 14:29N 49°55' W 005°51'510.8
2018-Aug-14 14:00N 49°54' W 005°43'610.8
2018-Aug-14 13:26N 49°53' W 005°33'5010.1
2018-Aug-14 08:29N 49°53' W 004°16'7 7.7
2018-Aug-14 07:34N 49°54' W 004°05'1 7.7
2018-Aug-14 07:29N 49°54' W 004°04'4 7.9
2018-Aug-14 06:55N 49°55' W 003°57'6 8.5
2018-Aug-14 06:09N 49°55' W 003°47'1 9.3
2018-Aug-14 06:00N 49°56' W 003°45'5 9.5
2018-Aug-14 05:30N 49°56' W 003°38'5 9.8
2018-Aug-14 05:00N 49°56' W 003°30'510.5
2018-Aug-14 04:30N 49°57' W 003°22'611.2
2018-Aug-14 04:00N 49°57' W 003°13'611.9
2018-Aug-14 03:30N 49°58' W 003°04'612.3
2018-Aug-14 03:00N 49°59' W 002°55'612.7
2018-Aug-14 02:30N 50°01' W 002°45'612.6
2018-Aug-14 02:00N 50°03' W 002°36'611.9
2018-Aug-14 01:28N 50°05' W 002°27'610.9
2018-Aug-14 00:55N 50°06' W 002°17'6 9.7
2018-Aug-14 00:19N 50°08' W 002°09'3 8.6
2018-Aug-14 00:01N 50°09' W 002°05'4 7.8
2018-Aug-13 23:30N 50°10' W 001°59'4 6.8
2018-Aug-13 22:58N 50°11' W 001°54'3 6.1
2018-Aug-13 22:30N 50°12' W 001°50'3 5.5
2018-Aug-13 21:58N 50°13' W 001°45'2 5.0
2018-Aug-13 21:30N 50°14' W 001°42'3 5.5
2018-Aug-13 20:58N 50°15' W 001°37'33 8.9
2018-Aug-13 17:12N 50°24' W 000°47'412.6
2018-Aug-13 16:54N 50°25' W 000°41'612.4
2018-Aug-13 16:26N 50°26' W 000°32'512.2
2018-Aug-13 16:00N 50°28' W 000°25'1511.4
2018-Aug-13 14:43N 50°31' W 000°03'310.7
2018-Aug-13 14:25N 50°32' E 000°02'410.5
2018-Aug-13 14:00N 50°33' E 000°09'510.2
2018-Aug-13 13:30N 50°35' E 000°17'5 9.9
2018-Aug-13 13:00N 50°36' E 000°24'5 9.4
2018-Aug-13 12:30N 50°38' E 000°31'5 9.0
2018-Aug-13 12:00N 50°39' E 000°38'4 8.7
2018-Aug-13 11:30N 50°41' E 000°44'4 8.7
2018-Aug-13 11:00N 50°44' E 000°49'4 8.8
2018-Aug-13 10:30N 50°47' E 000°55'5 9.5
2018-Aug-13 10:00N 50°50' E 001°00'510.5
2018-Aug-13 09:30N 50°53' E 001°07'611.6
2018-Aug-13 09:00N 50°57' E 001°14'612.9
2018-Aug-13 08:30N 51°01' E 001°22'713.5
2018-Aug-13 08:00N 51°05' E 001°30'713.3
2018-Aug-13 07:30N 51°10' E 001°38'612.2
2018-Aug-13 07:00N 51°14' E 001°45'611.4
2018-Aug-13 06:30N 51°19' E 001°49'510.4
2018-Aug-13 06:00N 51°24' E 001°53'5 9.6
2018-Aug-13 05:30N 51°28' E 001°57'5 9.2
2018-Aug-13 05:00N 51°31' E 002°02'4 8.8
2018-Aug-13 04:30N 51°34' E 002°07'4 8.5
2018-Aug-13 04:00N 51°38' E 002°12'4 8.6
2018-Aug-13 03:30N 51°41' E 002°16'5 8.3
2018-Aug-13 02:57N 51°44' E 002°21'4 8.3
2018-Aug-13 02:30N 51°47' E 002°25'4 8.4
2018-Aug-13 02:00N 51°50' E 002°30'3110.2
2018-Aug-12 22:56N 52°14' E 003°03'611.9
2018-Aug-12 22:26N 52°18' E 003°10'512.0
2018-Aug-12 22:00N 52°22' E 003°15'611.4
2018-Aug-12 21:30N 52°25' E 003°23'611.5
2018-Aug-12 21:00N 52°27' E 003°32'611.3
2018-Aug-12 20:30N 52°29' E 003°41'510.9
2018-Aug-12 20:00N 52°30' E 003°50'510.4
2018-Aug-12 19:30N 52°30' E 003°58'510.3
2018-Aug-12 19:00N 52°30' E 004°07'510.3
2018-Aug-12 18:30N 52°30' E 004°15'510.4
2018-Aug-12 18:00N 52°29' E 004°23'510.1
2018-Aug-12 17:30N 52°28' E 004°32'3 6.0
2018-Aug-12 17:00N 52°28' E 004°36'0 0.0
2018-Aug-12 16:29N 52°28' E 004°36'0 0.0
2018-Aug-12 15:59N 52°28' E 004°36'0 0.0
2018-Aug-12 15:29N 52°28' E 004°36'0 0.0
2018-Aug-12 14:56N 52°28' E 004°36'0 0.0
2018-Aug-12 14:26N 52°28' E 004°36'0 0.0
2018-Aug-12 13:59N 52°28' E 004°36'0 0.0
2018-Aug-12 13:29N 52°28' E 004°36'0 0.0
2018-Aug-12 12:59N 52°28' E 004°36'0 0.0
2018-Aug-12 12:29N 52°28' E 004°36'0 0.0
2018-Aug-12 11:59N 52°28' E 004°36'0 0.0
2018-Aug-12 11:29N 52°28' E 004°36'0 0.0
2018-Aug-12 10:59N 52°28' E 004°36'0 0.0
2018-Aug-12 10:29N 52°28' E 004°36'0 0.0
2018-Aug-12 09:59N 52°28' E 004°36'0 0.0
2018-Aug-12 09:29N 52°28' E 004°36'0 0.0
2018-Aug-12 08:59N 52°28' E 004°36'0 0.0
2018-Aug-12 08:29N 52°28' E 004°36'0 0.0
2018-Aug-12 07:59N 52°28' E 004°36'0 0.0
2018-Aug-12 07:29N 52°28' E 004°36'0 0.0
2018-Aug-12 06:59N 52°28' E 004°36'0 0.0
2018-Aug-12 06:29N 52°28' E 004°36'0 0.0
2018-Aug-12 05:59N 52°28' E 004°36'0 0.0
2018-Aug-12 05:29N 52°28' E 004°36'0 0.0
2018-Aug-12 04:56N 52°28' E 004°36'0 0.0
2018-Aug-12 04:29N 52°28' E 004°36'0 0.0
2018-Aug-12 03:56N 52°28' E 004°36'0 0.0
2018-Aug-12 03:29N 52°28' E 004°36'0 0.0
2018-Aug-12 02:59N 52°28' E 004°36'0 0.0
2018-Aug-12 02:29N 52°28' E 004°36'0 0.0
2018-Aug-12 01:59N 52°28' E 004°36'0 0.0
2018-Aug-12 01:29N 52°28' E 004°36'0 0.0
2018-Aug-12 00:59N 52°28' E 004°36'0 0.0
2018-Aug-12 00:29N 52°28' E 004°36'0 0.0
2018-Aug-11 23:59N 52°28' E 004°36'0 0.0
2018-Aug-11 23:29N 52°28' E 004°36'0 0.0
2018-Aug-11 22:59N 52°28' E 004°36'0 0.0
2018-Aug-11 22:30N 52°28' E 004°36'0 0.0
2018-Aug-11 21:56N 52°28' E 004°36'0 0.0
2018-Aug-11 21:26N 52°28' E 004°36'0 0.0
2018-Aug-11 20:59N 52°28' E 004°36'0 0.0
2018-Aug-11 20:26N 52°28' E 004°36'0 0.0
2018-Aug-11 19:59N 52°28' E 004°36'0 0.0
2018-Aug-11 19:29N 52°28' E 004°36'0 0.0
2018-Aug-11 18:59N 52°28' E 004°36'0 0.0
2018-Aug-11 18:29N 52°28' E 004°36'0 0.0
2018-Aug-11 17:59N 52°28' E 004°36'0 0.0
2018-Aug-11 17:26N 52°28' E 004°36'0 0.0
2018-Aug-11 16:59N 52°28' E 004°36'0 0.0
2018-Aug-11 16:29N 52°28' E 004°36'0 0.0
2018-Aug-11 15:59N 52°28' E 004°36'0 0.0
2018-Aug-11 15:26N 52°28' E 004°36'0 0.0
2018-Aug-11 14:59N 52°28' E 004°36'0 0.0
2018-Aug-11 14:26N 52°28' E 004°36'0 0.0
2018-Aug-11 13:59N 52°28' E 004°36'0 0.0
2018-Aug-11 13:29N 52°28' E 004°36'0 0.0
2018-Aug-11 12:56N 52°28' E 004°36'0 0.0
2018-Aug-11 12:29N 52°28' E 004°36'0 0.0
2018-Aug-11 11:59N 52°28' E 004°36'0 0.0
2018-Aug-11 11:23N 52°28' E 004°36'0 0.0
2018-Aug-11 10:59N 52°28' E 004°36'0 0.0
2018-Aug-11 10:29N 52°28' E 004°36'0 0.0
2018-Aug-11 09:59N 52°28' E 004°36'0 0.0
2018-Aug-11 09:29N 52°28' E 004°36'0 0.0
2018-Aug-11 08:59N 52°28' E 004°36'0 0.0
2018-Aug-11 08:29N 52°28' E 004°36'0 0.0
2018-Aug-11 07:59N 52°28' E 004°36'0 0.0
2018-Aug-11 07:29N 52°28' E 004°36'0 0.0
2018-Aug-11 06:59N 52°28' E 004°36'0 0.0
2018-Aug-11 06:29N 52°28' E 004°36'0 0.0
2018-Aug-11 05:59N 52°28' E 004°36'0 0.0
2018-Aug-11 05:26N 52°28' E 004°36'0 0.0
2018-Aug-11 04:59N 52°28' E 004°36'0 0.0
2018-Aug-11 04:29N 52°28' E 004°36'0 0.0
2018-Aug-11 03:59N 52°28' E 004°36'0 0.0
2018-Aug-11 03:26N 52°28' E 004°36'0 0.0
2018-Aug-11 02:59N 52°28' E 004°36'0 0.0
2018-Aug-11 02:29N 52°28' E 004°36'0 0.0
2018-Aug-11 01:59N 52°28' E 004°36'0 0.0
2018-Aug-11 01:29N 52°28' E 004°36'0 0.0
2018-Aug-11 00:59N 52°28' E 004°36'0 0.0
2018-Aug-11 00:29N 52°28' E 004°36'0 0.0
2018-Aug-10 23:59N 52°28' E 004°36'0 0.0
2018-Aug-10 23:29N 52°28' E 004°36'0 0.0
2018-Aug-10 22:59N 52°28' E 004°36'0 0.0
2018-Aug-10 22:20N 52°28' E 004°36'0 0.0
2018-Aug-10 21:59N 52°28' E 004°36'0 0.0
2018-Aug-10 21:29N 52°28' E 004°36'0 0.0
2018-Aug-10 20:59N 52°28' E 004°36'0 0.0
2018-Aug-10 20:29N 52°28' E 004°36'0 0.0
2018-Aug-10 19:59N 52°28' E 004°36'0 0.0
2018-Aug-10 19:29N 52°28' E 004°36'0 0.0
2018-Aug-10 18:59N 52°28' E 004°36'0 0.0
2018-Aug-10 18:29N 52°28' E 004°36'0 0.0
2018-Aug-10 17:53N 52°28' E 004°36'0 0.0
2018-Aug-10 17:26N 52°28' E 004°36'0 0.0
2018-Aug-10 16:59N 52°28' E 004°36'0 0.0
2018-Aug-10 16:29N 52°28' E 004°36'0 0.0
2018-Aug-10 15:59N 52°28' E 004°36'0 0.0
2018-Aug-10 15:29N 52°28' E 004°36'0 0.0
2018-Aug-10 14:59N 52°28' E 004°36'0 0.0
2018-Aug-10 14:26N 52°28' E 004°36'0 0.0
2018-Aug-10 13:56N 52°28' E 004°36'0 0.0
2018-Aug-10 13:29N 52°28' E 004°36'0 0.0
2018-Aug-10 12:59N 52°28' E 004°36'0 0.0
2018-Aug-10 12:29N 52°28' E 004°36'0 0.0
2018-Aug-10 11:59N 52°28' E 004°36'0 0.0
2018-Aug-10 11:29N 52°28' E 004°36'0 0.0
2018-Aug-10 10:59N 52°28' E 004°36'0 0.0
2018-Aug-10 10:29N 52°28' E 004°36'0 0.0
2018-Aug-10 09:59N 52°28' E 004°36'0 0.0
2018-Aug-10 09:29N 52°28' E 004°36'0 0.0
2018-Aug-10 08:59N 52°28' E 004°36'0 0.0
2018-Aug-10 08:29N 52°28' E 004°36'0 0.0
2018-Aug-10 07:56N 52°28' E 004°36'0 0.0
2018-Aug-10 07:29N 52°28' E 004°36'0 0.0
2018-Aug-10 06:56N 52°28' E 004°36'0 0.0
2018-Aug-10 06:29N 52°28' E 004°36'0 0.0
2018-Aug-10 05:59N 52°28' E 004°36'0 0.0
2018-Aug-10 05:26N 52°28' E 004°36'0 0.0
2018-Aug-10 04:59N 52°28' E 004°36'0 0.0
2018-Aug-10 04:29N 52°28' E 004°36'0 0.0
2018-Aug-10 03:56N 52°28' E 004°36'0 0.0
2018-Aug-10 03:26N 52°28' E 004°36'0 0.0
2018-Aug-10 02:59N 52°28' E 004°36'0 0.0
2018-Aug-10 02:26N 52°28' E 004°36'0 0.0
2018-Aug-10 01:59N 52°28' E 004°36'0 0.0
2018-Aug-10 01:29N 52°28' E 004°36'0 0.0
2018-Aug-10 00:56N 52°28' E 004°36'0 0.0
2018-Aug-10 00:29N 52°28' E 004°36'0 0.0
2018-Aug-09 23:56N 52°28' E 004°36'0 0.0
2018-Aug-09 23:29N 52°28' E 004°36'0 0.0
2018-Aug-09 22:59N 52°28' E 004°36'0 0.0
2018-Aug-09 22:29N 52°28' E 004°36'0 0.0
2018-Aug-09 21:56N 52°28' E 004°36'0 0.0
2018-Aug-09 21:29N 52°28' E 004°36'0 0.0
2018-Aug-09 20:59N 52°28' E 004°36'0 0.0
2018-Aug-09 20:29N 52°28' E 004°36'0 0.0
2018-Aug-09 19:59N 52°28' E 004°36'0 0.0
2018-Aug-09 19:29N 52°28' E 004°36'0 0.0
2018-Aug-09 18:56N 52°28' E 004°36'0 0.0
2018-Aug-09 18:29N 52°28' E 004°36'0 0.0
2018-Aug-09 17:56N 52°28' E 004°36'0 0.2
2018-Aug-09 17:30N 52°28' E 004°36'1 2.7
2018-Aug-09 17:00N 52°28' E 004°34'510.3
2018-Aug-09 16:30N 52°29' E 004°26'4 8.0
2018-Aug-09 16:00N 52°29' E 004°19'4 8.6
2018-Aug-09 15:30N 52°29' E 004°12'510.0
2018-Aug-09 15:00N 52°28' E 004°04'2 3.2
2018-Aug-09 14:28N 52°26' E 004°03'0 0.1
2018-Aug-09 13:58N 52°26' E 004°03'0 0.1
2018-Aug-09 13:28N 52°27' E 004°03'0 0.0
2018-Aug-09 12:58N 52°27' E 004°03'0 0.2
2018-Aug-09 12:28N 52°26' E 004°03'3 6.0
2018-Aug-09 12:00N 52°29' E 004°02'510.8
2018-Aug-09 11:30N 52°30' E 003°54'611.5
2018-Aug-09 11:00N 52°30' E 003°44'611.0
2018-Aug-09 10:30N 52°31' E 003°35'5 9.0
2018-Aug-09 10:00N 52°34' E 003°30'511.0
2018-Aug-09 09:30N 52°39' E 003°33'812.0
2018-Aug-09 08:49N 52°45' E 003°41'1012.2
2018-Aug-09 08:00N 52°53' E 003°52'712.1
2018-Aug-09 07:26N 52°58' E 003°60'512.1
2018-Aug-09 07:00N 53°01' E 004°07'612.0
2018-Aug-09 06:30N 53°05' E 004°15'611.8
2018-Aug-09 06:00N 53°09' E 004°22'511.1
2018-Aug-09 05:30N 53°14' E 004°27'1910.0
2018-Aug-09 03:38N 53°30' E 004°43'110.2
2018-Aug-09 03:30N 53°30' E 004°45'510.2
2018-Aug-09 03:00N 53°32' E 004°53'510.2
2018-Aug-09 02:30N 53°34' E 005°01'510.2
2018-Aug-09 02:00N 53°35' E 005°09'510.2
2018-Aug-09 01:30N 53°37' E 005°17'510.6
2018-Aug-09 01:00N 53°39' E 005°26'611.0
2018-Aug-09 00:30N 53°40' E 005°35'7610.6
2018-Aug-08 17:22N 53°59' E 007°39'5 8.9
2018-Aug-08 16:46N 53°55' E 007°44'3 9.2
2018-Aug-08 16:30N 53°54' E 007°48'2 1.7
2018-Aug-08 15:32N 53°54' E 007°51'0 0.2
2018-Aug-08 15:26N 53°54' E 007°51'0 0.0
2018-Aug-08 14:59N 53°54' E 007°51'0 0.0
2018-Aug-08 14:26N 53°54' E 007°51'0 0.0
2018-Aug-08 13:47N 53°54' E 007°51'0 0.0
2018-Aug-08 13:29N 53°54' E 007°51'0 0.1
2018-Aug-08 12:59N 53°54' E 007°51'0 0.1
2018-Aug-08 12:29N 53°54' E 007°51'0 0.0
2018-Aug-08 11:44N 53°54' E 007°51'0 0.1
2018-Aug-08 11:14N 53°54' E 007°50'0 0.1
2018-Aug-08 10:59N 53°54' E 007°50'0 0.0
2018-Aug-08 10:29N 53°54' E 007°50'0 0.0
2018-Aug-08 09:59N 53°54' E 007°50'0 0.0
2018-Aug-08 09:29N 53°54' E 007°50'0 0.1
2018-Aug-08 08:50N 53°54' E 007°50'0 0.0
2018-Aug-08 08:26N 53°54' E 007°50'0 0.0
2018-Aug-08 07:56N 53°54' E 007°51'0 0.2
2018-Aug-08 07:23N 53°54' E 007°51'0 0.1
2018-Aug-08 06:56N 53°54' E 007°51'0 0.0
2018-Aug-08 06:26N 53°54' E 007°51'0 0.0
2018-Aug-08 05:56N 53°54' E 007°51'0 0.0
2018-Aug-08 05:26N 53°54' E 007°51'0 0.0
2018-Aug-08 04:50N 53°54' E 007°51'0 0.0
2018-Aug-08 04:29N 53°54' E 007°51'0 0.0
2018-Aug-08 03:56N 53°54' E 007°51'0 0.0
2018-Aug-08 03:17N 53°54' E 007°51'0 0.0
2018-Aug-08 02:56N 53°54' E 007°51'0 0.2
2018-Aug-08 02:29N 53°54' E 007°51'0 0.3
2018-Aug-08 01:59N 53°54' E 007°50'0 0.0
2018-Aug-08 01:29N 53°54' E 007°50'0 0.0
2018-Aug-08 00:59N 53°54' E 007°50'0 0.0
2018-Aug-08 00:29N 53°54' E 007°50'0 0.0
2018-Aug-07 23:59N 53°54' E 007°50'0 0.0
2018-Aug-07 23:29N 53°54' E 007°50'0 0.0
2018-Aug-07 22:53N 53°54' E 007°50'0 0.0
2018-Aug-07 22:29N 53°54' E 007°50'0 0.0
2018-Aug-07 21:05N 53°54' E 007°50'0 0.0
2018-Aug-07 20:50N 53°54' E 007°50'0 0.0
2018-Aug-07 20:26N 53°54' E 007°50'0 0.1
2018-Aug-07 19:56N 53°54' E 007°50'0 0.0
2018-Aug-07 09:29N 53°54' E 007°50'0 0.0
2018-Aug-07 08:56N 53°54' E 007°50'0 0.0
2018-Aug-07 08:26N 53°54' E 007°50'0 0.0
2018-Aug-07 07:59N 53°54' E 007°50'0 0.0
2018-Aug-07 07:29N 53°54' E 007°50'0 0.1
2018-Aug-07 06:59N 53°54' E 007°50'0 0.1
2018-Aug-07 06:29N 53°54' E 007°51'0 0.1
2018-Aug-07 05:59N 53°54' E 007°51'0 0.0
2018-Aug-07 05:26N 53°54' E 007°51'0 0.0
2018-Aug-07 04:59N 53°54' E 007°51'0 0.0
2018-Aug-07 04:29N 53°54' E 007°51'0 0.0
2018-Aug-07 03:56N 53°54' E 007°51'0 0.0
2018-Aug-07 03:26N 53°54' E 007°51'0 0.0
2018-Aug-07 02:59N 53°54' E 007°51'0 0.0
2018-Aug-07 02:29N 53°54' E 007°51'0 0.0
2018-Aug-07 01:59N 53°54' E 007°51'0 0.0
2018-Aug-07 01:29N 53°54' E 007°51'0 0.1
2018-Aug-07 00:56N 53°54' E 007°50'0 0.1
2018-Aug-07 00:23N 53°54' E 007°50'0 0.1
2018-Aug-06 23:59N 53°54' E 007°50'0 0.0
2018-Aug-06 23:29N 53°54' E 007°50'0 0.0
2018-Aug-06 22:59N 53°54' E 007°50'0 0.0
2018-Aug-06 22:29N 53°54' E 007°50'0 0.0
2018-Aug-06 21:59N 53°54' E 007°50'0 0.0
2018-Aug-06 21:26N 53°54' E 007°50'0 0.0
2018-Aug-06 20:59N 53°54' E 007°50'0 0.0
2018-Aug-06 20:29N 53°54' E 007°50'0 0.0
2018-Aug-06 19:56N 53°54' E 007°50'0 0.0
2018-Aug-06 19:29N 53°54' E 007°50'0 0.0
2018-Aug-06 18:59N 53°54' E 007°50'0 0.1
2018-Aug-06 18:29N 53°54' E 007°50'0 0.1
2018-Aug-06 17:56N 53°54' E 007°50'0 0.1
2018-Aug-06 17:29N 53°54' E 007°50'0 0.1
2018-Aug-06 16:56N 53°54' E 007°51'0 0.0
2018-Aug-06 16:20N 53°54' E 007°51'0 0.0
2018-Aug-06 14:02N 53°54' E 007°51'0 0.0
2018-Aug-06 13:59N 53°54' E 007°51'0 0.0
2018-Aug-06 13:29N 53°54' E 007°51'0 0.0
2018-Aug-06 12:56N 53°54' E 007°51'0 0.0
2018-Aug-06 12:18N 53°54' E 007°51'0 0.1
2018-Aug-06 11:53N 53°54' E 007°50'0 0.1
2018-Aug-06 11:26N 53°54' E 007°50'0 0.1
2018-Aug-06 10:59N 53°54' E 007°50'0 0.1
2018-Aug-06 10:29N 53°54' E 007°50'0 0.0
2018-Aug-06 09:59N 53°54' E 007°50'0 0.0
2018-Aug-06 09:29N 53°54' E 007°50'0 0.0
2018-Aug-06 08:59N 53°54' E 007°50'0 0.0
2018-Aug-06 08:26N 53°54' E 007°50'0 0.0
2018-Aug-06 07:59N 53°54' E 007°50'0 0.0
2018-Aug-06 07:17N 53°54' E 007°50'0 0.1
2018-Aug-06 06:53N 53°54' E 007°50'0 0.0
2018-Aug-06 06:26N 53°54' E 007°50'0 0.1
2018-Aug-06 05:59N 53°54' E 007°50'0 0.1
2018-Aug-06 05:29N 53°54' E 007°51'0 0.1
2018-Aug-06 04:59N 53°54' E 007°51'0 0.1
2018-Aug-06 04:29N 53°54' E 007°51'0 0.0
2018-Aug-06 03:59N 53°54' E 007°51'0 0.0
2018-Aug-06 03:23N 53°54' E 007°51'0 0.0
2018-Aug-06 02:59N 53°54' E 007°51'0 0.0
2018-Aug-06 02:29N 53°54' E 007°51'0 0.0
2018-Aug-06 01:59N 53°54' E 007°51'0 0.0
2018-Aug-06 01:29N 53°54' E 007°51'0 0.0
2018-Aug-06 00:59N 53°54' E 007°51'0 0.0
2018-Aug-06 00:29N 53°54' E 007°51'0 0.0
2018-Aug-05 23:59N 53°54' E 007°51'0 0.0
2018-Aug-05 23:29N 53°54' E 007°51'0 0.0
2018-Aug-05 22:59N 53°54' E 007°51'0 0.0
2018-Aug-05 22:29N 53°54' E 007°51'0 0.1
2018-Aug-05 21:59N 53°54' E 007°50'0 0.1
2018-Aug-05 21:20N 53°54' E 007°50'0 0.0
2018-Aug-05 20:59N 53°54' E 007°50'0 0.0
2018-Aug-05 20:29N 53°54' E 007°50'0 0.0
2018-Aug-05 19:59N 53°54' E 007°50'0 0.1
2018-Aug-05 19:29N 53°54' E 007°50'0 0.1
2018-Aug-05 18:59N 53°54' E 007°50'0 0.1
2018-Aug-05 18:29N 53°54' E 007°50'0 0.1
2018-Aug-05 17:59N 53°54' E 007°51'0 0.0
2018-Aug-05 17:26N 53°54' E 007°51'0 0.0
2018-Aug-05 16:59N 53°54' E 007°51'0 0.0
2018-Aug-05 16:23N 53°54' E 007°51'0 0.0
2018-Aug-05 15:59N 53°54' E 007°51'0 0.0
2018-Aug-05 15:20N 53°54' E 007°51'0 0.0
2018-Aug-05 14:53N 53°54' E 007°51'0 0.0
2018-Aug-05 14:29N 53°54' E 007°51'0 0.0
2018-Aug-05 13:29N 53°54' E 007°51'0 0.0
2018-Aug-05 12:59N 53°54' E 007°51'0 0.0
2018-Aug-05 12:29N 53°54' E 007°51'0 0.0
2018-Aug-05 11:59N 53°54' E 007°51'0 0.0
2018-Aug-05 11:26N 53°54' E 007°51'0 0.1
2018-Aug-05 10:56N 53°54' E 007°51'0 0.0
2018-Aug-05 10:29N 53°54' E 007°51'0 0.0
2018-Aug-05 09:59N 53°54' E 007°51'0 0.0
2018-Aug-05 09:29N 53°54' E 007°51'0 0.1
2018-Aug-05 08:59N 53°53' E 007°50'0 0.1
2018-Aug-05 08:29N 53°53' E 007°50'0 0.1
2018-Aug-05 07:59N 53°54' E 007°50'0 0.0
2018-Aug-05 07:29N 53°54' E 007°50'0 0.1
2018-Aug-05 06:59N 53°53' E 007°50'0 0.1
2018-Aug-05 06:29N 53°53' E 007°50'0 0.1
2018-Aug-05 05:59N 53°53' E 007°50'0 0.0
2018-Aug-05 05:26N 53°53' E 007°50'0 0.1
2018-Aug-05 04:59N 53°53' E 007°50'0 0.0
2018-Aug-05 04:26N 53°53' E 007°50'0 0.1
2018-Aug-05 03:59N 53°53' E 007°50'0 0.0
2018-Aug-05 03:29N 53°54' E 007°51'0 0.0
2018-Aug-05 02:59N 53°54' E 007°51'0 0.0
2018-Aug-05 02:29N 53°54' E 007°51'0 0.0
2018-Aug-05 01:56N 53°54' E 007°51'0 0.0
2018-Aug-05 01:23N 53°54' E 007°51'0 0.0
2018-Aug-05 00:59N 53°54' E 007°51'0 0.0
2018-Aug-05 00:29N 53°54' E 007°51'0 0.0
2018-Aug-04 23:59N 53°54' E 007°51'  
Track history (hours):
 
Tides and Currents Weather Stations Pressure Air Temp Water Temp Dewpoint Dewpoint Depression Visibility Wind Speed Wind Dir Waves Ship Positions

Zeycan Ana

Last reported at 2018-Aug-14 23:30 UTC. Time now 2018-Aug-14 23:43 UTC.
Position N 51°07' W 004°33'.

Length 122 m; draft 8 m.

Type: Cargo ship. MMSI: 248737000.

Date/timePositionNaut miles runAvg speedWind from/ knotsBaromVisibWave heightAir tempDewpointWater temp
2018-Aug-14 23:30N 51°07' W 004°33'3 7.0
2018-Aug-14 23:00N 51°04' W 004°37'4 7.3
2018-Aug-14 22:31N 51°02' W 004°41'4 8.9
2018-Aug-14 22:01N 50°59' W 004°47'5 9.5
2018-Aug-14 21:31N 50°56' W 004°52'5 9.9
2018-Aug-14 21:01N 50°53' W 004°58'510.2
2018-Aug-14 20:31N 50°49' W 005°05'510.6
2018-Aug-14 20:01N 50°46' W 005°11'510.8
2018-Aug-14 19:30N 50°43' W 005°18'510.9
2018-Aug-14 19:01N 50°39' W 005°24'611.1
2018-Aug-14 18:31N 50°35' W 005°31'611.5
2018-Aug-14 17:59N 50°32' W 005°38'611.4
2018-Aug-14 17:30N 50°27' W 005°43'611.7
2018-Aug-14 17:00N 50°23' W 005°49'611.2
2018-Aug-14 16:30N 50°17' W 005°52'611.6
2018-Aug-14 16:00N 50°12' W 005°53'611.8
2018-Aug-14 15:28N 50°06' W 005°53'611.8
2018-Aug-14 15:00N 49°60' W 005°52'510.2
2018-Aug-14 14:29N 49°55' W 005°51'510.8
2018-Aug-14 14:00N 49°54' W 005°43'610.8
2018-Aug-14 13:26N 49°53' W 005°33'5010.1
2018-Aug-14 08:29N 49°53' W 004°16'7 7.7
2018-Aug-14 07:34N 49°54' W 004°05'1 7.7
2018-Aug-14 07:29N 49°54' W 004°04'4 7.9
2018-Aug-14 06:55N 49°55' W 003°57'6 8.5
2018-Aug-14 06:09N 49°55' W 003°47'1 9.3
2018-Aug-14 06:00N 49°56' W 003°45'5 9.5
2018-Aug-14 05:30N 49°56' W 003°38'5 9.8
2018-Aug-14 05:00N 49°56' W 003°30'510.5
2018-Aug-14 04:30N 49°57' W 003°22'611.2
2018-Aug-14 04:00N 49°57' W 003°13'611.9
2018-Aug-14 03:30N 49°58' W 003°04'612.3
2018-Aug-14 03:00N 49°59' W 002°55'612.7
2018-Aug-14 02:30N 50°01' W 002°45'612.6
2018-Aug-14 02:00N 50°03' W 002°36'611.9
2018-Aug-14 01:28N 50°05' W 002°27'610.9
2018-Aug-14 00:55N 50°06' W 002°17'6 9.7
2018-Aug-14 00:19N 50°08' W 002°09'3 8.6
2018-Aug-14 00:01N 50°09' W 002°05'4 7.8
2018-Aug-13 23:30N 50°10' W 001°59'4 6.8
2018-Aug-13 22:58N 50°11' W 001°54'3 6.1
2018-Aug-13 22:30N 50°12' W 001°50'3 5.5
2018-Aug-13 21:58N 50°13' W 001°45'2 5.0
2018-Aug-13 21:30N 50°14' W 001°42'3 5.5
2018-Aug-13 20:58N 50°15' W 001°37'33 8.9
2018-Aug-13 17:12N 50°24' W 000°47'412.6
2018-Aug-13 16:54N 50°25' W 000°41'612.4
2018-Aug-13 16:26N 50°26' W 000°32'512.2
2018-Aug-13 16:00N 50°28' W 000°25'1511.4
2018-Aug-13 14:43N 50°31' W 000°03'310.7
2018-Aug-13 14:25N 50°32' E 000°02'410.5
2018-Aug-13 14:00N 50°33' E 000°09'510.2
2018-Aug-13 13:30N 50°35' E 000°17'5 9.9
2018-Aug-13 13:00N 50°36' E 000°24'5 9.4
2018-Aug-13 12:30N 50°38' E 000°31'5 9.0
2018-Aug-13 12:00N 50°39' E 000°38'4 8.7
2018-Aug-13 11:30N 50°41' E 000°44'4 8.7
2018-Aug-13 11:00N 50°44' E 000°49'4 8.8
2018-Aug-13 10:30N 50°47' E 000°55'5 9.5
2018-Aug-13 10:00N 50°50' E 001°00'510.5
2018-Aug-13 09:30N 50°53' E 001°07'611.6
2018-Aug-13 09:00N 50°57' E 001°14'612.9
2018-Aug-13 08:30N 51°01' E 001°22'713.5
2018-Aug-13 08:00N 51°05' E 001°30'713.3
2018-Aug-13 07:30N 51°10' E 001°38'612.2
2018-Aug-13 07:00N 51°14' E 001°45'611.4
2018-Aug-13 06:30N 51°19' E 001°49'510.4
2018-Aug-13 06:00N 51°24' E 001°53'5 9.6
2018-Aug-13 05:30N 51°28' E 001°57'5 9.2
2018-Aug-13 05:00N 51°31' E 002°02'4 8.8
2018-Aug-13 04:30N 51°34' E 002°07'4 8.5
2018-Aug-13 04:00N 51°38' E 002°12'4 8.6
2018-Aug-13 03:30N 51°41' E 002°16'5 8.3
2018-Aug-13 02:57N 51°44' E 002°21'4 8.3
2018-Aug-13 02:30N 51°47' E 002°25'4 8.4
2018-Aug-13 02:00N 51°50' E 002°30'3110.2
2018-Aug-12 22:56N 52°14' E 003°03'611.9
2018-Aug-12 22:26N 52°18' E 003°10'512.0
2018-Aug-12 22:00N 52°22' E 003°15'611.4
2018-Aug-12 21:30N 52°25' E 003°23'611.5
2018-Aug-12 21:00N 52°27' E 003°32'611.3
2018-Aug-12 20:30N 52°29' E 003°41'510.9
2018-Aug-12 20:00N 52°30' E 003°50'510.4
2018-Aug-12 19:30N 52°30' E 003°58'510.3
2018-Aug-12 19:00N 52°30' E 004°07'510.3
2018-Aug-12 18:30N 52°30' E 004°15'510.4
2018-Aug-12 18:00N 52°29' E 004°23'510.1
2018-Aug-12 17:30N 52°28' E 004°32'3 6.0
2018-Aug-12 17:00N 52°28' E 004°36'0 0.0
2018-Aug-12 16:29N 52°28' E 004°36'0 0.0
2018-Aug-12 15:59N 52°28' E 004°36'0 0.0
2018-Aug-12 15:29N 52°28' E 004°36'0 0.0
2018-Aug-12 14:56N 52°28' E 004°36'0 0.0
2018-Aug-12 14:26N 52°28' E 004°36'0 0.0
2018-Aug-12 13:59N 52°28' E 004°36'0 0.0
2018-Aug-12 13:29N 52°28' E 004°36'0 0.0
2018-Aug-12 12:59N 52°28' E 004°36'0 0.0
2018-Aug-12 12:29N 52°28' E 004°36'0 0.0
2018-Aug-12 11:59N 52°28' E 004°36'0 0.0
2018-Aug-12 11:29N 52°28' E 004°36'0 0.0
2018-Aug-12 10:59N 52°28' E 004°36'0 0.0
2018-Aug-12 10:29N 52°28' E 004°36'0 0.0
2018-Aug-12 09:59N 52°28' E 004°36'0 0.0
2018-Aug-12 09:29N 52°28' E 004°36'0 0.0
2018-Aug-12 08:59N 52°28' E 004°36'0 0.0
2018-Aug-12 08:29N 52°28' E 004°36'0 0.0
2018-Aug-12 07:59N 52°28' E 004°36'0 0.0
2018-Aug-12 07:29N 52°28' E 004°36'0 0.0
2018-Aug-12 06:59N 52°28' E 004°36'0 0.0
2018-Aug-12 06:29N 52°28' E 004°36'0 0.0
2018-Aug-12 05:59N 52°28' E 004°36'0 0.0
2018-Aug-12 05:29N 52°28' E 004°36'0 0.0
2018-Aug-12 04:56N 52°28' E 004°36'0 0.0
2018-Aug-12 04:29N 52°28' E 004°36'0 0.0
2018-Aug-12 03:56N 52°28' E 004°36'0 0.0
2018-Aug-12 03:29N 52°28' E 004°36'0 0.0
2018-Aug-12 02:59N 52°28' E 004°36'0 0.0
2018-Aug-12 02:29N 52°28' E 004°36'0 0.0
2018-Aug-12 01:59N 52°28' E 004°36'0 0.0
2018-Aug-12 01:29N 52°28' E 004°36'0 0.0
2018-Aug-12 00:59N 52°28' E 004°36'0 0.0
2018-Aug-12 00:29N 52°28' E 004°36'0 0.0
2018-Aug-11 23:59N 52°28' E 004°36'0 0.0
2018-Aug-11 23:29N 52°28' E 004°36'0 0.0
2018-Aug-11 22:59N 52°28' E 004°36'0 0.0
2018-Aug-11 22:30N 52°28' E 004°36'0 0.0
2018-Aug-11 21:56N 52°28' E 004°36'0 0.0
2018-Aug-11 21:26N 52°28' E 004°36'0 0.0
2018-Aug-11 20:59N 52°28' E 004°36'0 0.0
2018-Aug-11 20:26N 52°28' E 004°36'0 0.0
2018-Aug-11 19:59N 52°28' E 004°36'0 0.0
2018-Aug-11 19:29N 52°28' E 004°36'0 0.0
2018-Aug-11 18:59N 52°28' E 004°36'0 0.0
2018-Aug-11 18:29N 52°28' E 004°36'0 0.0
2018-Aug-11 17:59N 52°28' E 004°36'0 0.0
2018-Aug-11 17:26N 52°28' E 004°36'0 0.0
2018-Aug-11 16:59N 52°28' E 004°36'0 0.0
2018-Aug-11 16:29N 52°28' E 004°36'0 0.0
2018-Aug-11 15:59N 52°28' E 004°36'0 0.0
2018-Aug-11 15:26N 52°28' E 004°36'0 0.0
2018-Aug-11 14:59N 52°28' E 004°36'0 0.0
2018-Aug-11 14:26N 52°28' E 004°36'0 0.0
2018-Aug-11 13:59N 52°28' E 004°36'0 0.0
2018-Aug-11 13:29N 52°28' E 004°36'0 0.0
2018-Aug-11 12:56N 52°28' E 004°36'0 0.0
2018-Aug-11 12:29N 52°28' E 004°36'0 0.0
2018-Aug-11 11:59N 52°28' E 004°36'0 0.0
2018-Aug-11 11:23N 52°28' E 004°36'0 0.0
2018-Aug-11 10:59N 52°28' E 004°36'0 0.0
2018-Aug-11 10:29N 52°28' E 004°36'0 0.0
2018-Aug-11 09:59N 52°28' E 004°36'0 0.0
2018-Aug-11 09:29N 52°28' E 004°36'0 0.0
2018-Aug-11 08:59N 52°28' E 004°36'0 0.0
2018-Aug-11 08:29N 52°28' E 004°36'0 0.0
2018-Aug-11 07:59N 52°28' E 004°36'0 0.0
2018-Aug-11 07:29N 52°28' E 004°36'0 0.0
2018-Aug-11 06:59N 52°28' E 004°36'0 0.0
2018-Aug-11 06:29N 52°28' E 004°36'0 0.0
2018-Aug-11 05:59N 52°28' E 004°36'0 0.0
2018-Aug-11 05:26N 52°28' E 004°36'0 0.0
2018-Aug-11 04:59N 52°28' E 004°36'0 0.0
2018-Aug-11 04:29N 52°28' E 004°36'0 0.0
2018-Aug-11 03:59N 52°28' E 004°36'0 0.0
2018-Aug-11 03:26N 52°28' E 004°36'0 0.0
2018-Aug-11 02:59N 52°28' E 004°36'0 0.0
2018-Aug-11 02:29N 52°28' E 004°36'0 0.0
2018-Aug-11 01:59N 52°28' E 004°36'0 0.0
2018-Aug-11 01:29N 52°28' E 004°36'0 0.0
2018-Aug-11 00:59N 52°28' E 004°36'0 0.0
2018-Aug-11 00:29N 52°28' E 004°36'0 0.0
2018-Aug-10 23:59N 52°28' E 004°36'0 0.0
2018-Aug-10 23:29N 52°28' E 004°36'0 0.0
2018-Aug-10 22:59N 52°28' E 004°36'0 0.0
2018-Aug-10 22:20N 52°28' E 004°36'0 0.0
2018-Aug-10 21:59N 52°28' E 004°36'0 0.0
2018-Aug-10 21:29N 52°28' E 004°36'0 0.0
2018-Aug-10 20:59N 52°28' E 004°36'0 0.0
2018-Aug-10 20:29N 52°28' E 004°36'0 0.0
2018-Aug-10 19:59N 52°28' E 004°36'0 0.0
2018-Aug-10 19:29N 52°28' E 004°36'0 0.0
2018-Aug-10 18:59N 52°28' E 004°36'0 0.0
2018-Aug-10 18:29N 52°28' E 004°36'0 0.0
2018-Aug-10 17:53N 52°28' E 004°36'0 0.0
2018-Aug-10 17:26N 52°28' E 004°36'0 0.0
2018-Aug-10 16:59N 52°28' E 004°36'0 0.0
2018-Aug-10 16:29N 52°28' E 004°36'0 0.0
2018-Aug-10 15:59N 52°28' E 004°36'0 0.0
2018-Aug-10 15:29N 52°28' E 004°36'0 0.0
2018-Aug-10 14:59N 52°28' E 004°36'0 0.0
2018-Aug-10 14:26N 52°28' E 004°36'0 0.0
2018-Aug-10 13:56N 52°28' E 004°36'0 0.0
2018-Aug-10 13:29N 52°28' E 004°36'0 0.0
2018-Aug-10 12:59N 52°28' E 004°36'0 0.0
2018-Aug-10 12:29N 52°28' E 004°36'0 0.0
2018-Aug-10 11:59N 52°28' E 004°36'0 0.0
2018-Aug-10 11:29N 52°28' E 004°36'0 0.0
2018-Aug-10 10:59N 52°28' E 004°36'0 0.0
2018-Aug-10 10:29N 52°28' E 004°36'0 0.0
2018-Aug-10 09:59N 52°28' E 004°36'0 0.0
2018-Aug-10 09:29N 52°28' E 004°36'0 0.0
2018-Aug-10 08:59N 52°28' E 004°36'0 0.0
2018-Aug-10 08:29N 52°28' E 004°36'0 0.0
2018-Aug-10 07:56N 52°28' E 004°36'0 0.0
2018-Aug-10 07:29N 52°28' E 004°36'0 0.0
2018-Aug-10 06:56N 52°28' E 004°36'0 0.0
2018-Aug-10 06:29N 52°28' E 004°36'0 0.0
2018-Aug-10 05:59N 52°28' E 004°36'0 0.0
2018-Aug-10 05:26N 52°28' E 004°36'0 0.0
2018-Aug-10 04:59N 52°28' E 004°36'0 0.0
2018-Aug-10 04:29N 52°28' E 004°36'0 0.0
2018-Aug-10 03:56N 52°28' E 004°36'0 0.0
2018-Aug-10 03:26N 52°28' E 004°36'0 0.0
2018-Aug-10 02:59N 52°28' E 004°36'0 0.0
2018-Aug-10 02:26N 52°28' E 004°36'0 0.0
2018-Aug-10 01:59N 52°28' E 004°36'0 0.0
2018-Aug-10 01:29N 52°28' E 004°36'0 0.0
2018-Aug-10 00:56N 52°28' E 004°36'0 0.0
2018-Aug-10 00:29N 52°28' E 004°36'0 0.0
2018-Aug-09 23:56N 52°28' E 004°36'0 0.0
2018-Aug-09 23:29N 52°28' E 004°36'0 0.0
2018-Aug-09 22:59N 52°28' E 004°36'0 0.0
2018-Aug-09 22:29N 52°28' E 004°36'0 0.0
2018-Aug-09 21:56N 52°28' E 004°36'0 0.0
2018-Aug-09 21:29N 52°28' E 004°36'0 0.0
2018-Aug-09 20:59N 52°28' E 004°36'0 0.0
2018-Aug-09 20:29N 52°28' E 004°36'0 0.0
2018-Aug-09 19:59N 52°28' E 004°36'0 0.0
2018-Aug-09 19:29N 52°28' E 004°36'0 0.0
2018-Aug-09 18:56N 52°28' E 004°36'0 0.0
2018-Aug-09 18:29N 52°28' E 004°36'0 0.0
2018-Aug-09 17:56N 52°28' E 004°36'0 0.2
2018-Aug-09 17:30N 52°28' E 004°36'1 2.7
2018-Aug-09 17:00N 52°28' E 004°34'510.3
2018-Aug-09 16:30N 52°29' E 004°26'4 8.0
2018-Aug-09 16:00N 52°29' E 004°19'4 8.6
2018-Aug-09 15:30N 52°29' E 004°12'510.0
2018-Aug-09 15:00N 52°28' E 004°04'2 3.2
2018-Aug-09 14:28N 52°26' E 004°03'0 0.1
2018-Aug-09 13:58N 52°26' E 004°03'0 0.1
2018-Aug-09 13:28N 52°27' E 004°03'0 0.0
2018-Aug-09 12:58N 52°27' E 004°03'0 0.2
2018-Aug-09 12:28N 52°26' E 004°03'3 6.0
2018-Aug-09 12:00N 52°29' E 004°02'510.8
2018-Aug-09 11:30N 52°30' E 003°54'611.5
2018-Aug-09 11:00N 52°30' E 003°44'611.0
2018-Aug-09 10:30N 52°31' E 003°35'5 9.0
2018-Aug-09 10:00N 52°34' E 003°30'511.0
2018-Aug-09 09:30N 52°39' E 003°33'812.0
2018-Aug-09 08:49N 52°45' E 003°41'1012.2
2018-Aug-09 08:00N 52°53' E 003°52'712.1
2018-Aug-09 07:26N 52°58' E 003°60'512.1
2018-Aug-09 07:00N 53°01' E 004°07'612.0
2018-Aug-09 06:30N 53°05' E 004°15'611.8
2018-Aug-09 06:00N 53°09' E 004°22'511.1
2018-Aug-09 05:30N 53°14' E 004°27'1910.0
2018-Aug-09 03:38N 53°30' E 004°43'110.2
2018-Aug-09 03:30N 53°30' E 004°45'510.2
2018-Aug-09 03:00N 53°32' E 004°53'510.2
2018-Aug-09 02:30N 53°34' E 005°01'510.2
2018-Aug-09 02:00N 53°35' E 005°09'510.2
2018-Aug-09 01:30N 53°37' E 005°17'510.6
2018-Aug-09 01:00N 53°39' E 005°26'611.0
2018-Aug-09 00:30N 53°40' E 005°35'7610.6
2018-Aug-08 17:22N 53°59' E 007°39'5 8.9
2018-Aug-08 16:46N 53°55' E 007°44'3 9.2
2018-Aug-08 16:30N 53°54' E 007°48'2 1.7
2018-Aug-08 15:32N 53°54' E 007°51'0 0.2
2018-Aug-08 15:26N 53°54' E 007°51'0 0.0
2018-Aug-08 14:59N 53°54' E 007°51'0 0.0
2018-Aug-08 14:26N 53°54' E 007°51'0 0.0
2018-Aug-08 13:47N 53°54' E 007°51'0 0.0
2018-Aug-08 13:29N 53°54' E 007°51'0 0.1
2018-Aug-08 12:59N 53°54' E 007°51'0 0.1
2018-Aug-08 12:29N 53°54' E 007°51'0 0.0
2018-Aug-08 11:44N 53°54' E 007°51'0 0.1
2018-Aug-08 11:14N 53°54' E 007°50'0 0.1
2018-Aug-08 10:59N 53°54' E 007°50'0 0.0
2018-Aug-08 10:29N 53°54' E 007°50'0 0.0
2018-Aug-08 09:59N 53°54' E 007°50'0 0.0
2018-Aug-08 09:29N 53°54' E 007°50'0 0.1
2018-Aug-08 08:50N 53°54' E 007°50'0 0.0
2018-Aug-08 08:26N 53°54' E 007°50'0 0.0
2018-Aug-08 07:56N 53°54' E 007°51'0 0.2
2018-Aug-08 07:23N 53°54' E 007°51'0 0.1
2018-Aug-08 06:56N 53°54' E 007°51'0 0.0
2018-Aug-08 06:26N 53°54' E 007°51'0 0.0
2018-Aug-08 05:56N 53°54' E 007°51'0 0.0
2018-Aug-08 05:26N 53°54' E 007°51'0 0.0
2018-Aug-08 04:50N 53°54' E 007°51'0 0.0
2018-Aug-08 04:29N 53°54' E 007°51'0 0.0
2018-Aug-08 03:56N 53°54' E 007°51'0 0.0
2018-Aug-08 03:17N 53°54' E 007°51'0 0.0
2018-Aug-08 02:56N 53°54' E 007°51'0 0.2
2018-Aug-08 02:29N 53°54' E 007°51'0 0.3
2018-Aug-08 01:59N 53°54' E 007°50'0 0.0
2018-Aug-08 01:29N 53°54' E 007°50'0 0.0
2018-Aug-08 00:59N 53°54' E 007°50'0 0.0
2018-Aug-08 00:29N 53°54' E 007°50'0 0.0
2018-Aug-07 23:59N 53°54' E 007°50'0 0.0
2018-Aug-07 23:29N 53°54' E 007°50'0 0.0
2018-Aug-07 22:53N 53°54' E 007°50'0 0.0
2018-Aug-07 22:29N 53°54' E 007°50'0 0.0
2018-Aug-07 21:05N 53°54' E 007°50'0 0.0
2018-Aug-07 20:50N 53°54' E 007°50'0 0.0
2018-Aug-07 20:26N 53°54' E 007°50'0 0.1
2018-Aug-07 19:56N 53°54' E 007°50'0 0.0
2018-Aug-07 09:29N 53°54' E 007°50'0 0.0
2018-Aug-07 08:56N 53°54' E 007°50'0 0.0
2018-Aug-07 08:26N 53°54' E 007°50'0 0.0
2018-Aug-07 07:59N 53°54' E 007°50'0 0.0
2018-Aug-07 07:29N 53°54' E 007°50'0 0.1
2018-Aug-07 06:59N 53°54' E 007°50'0 0.1
2018-Aug-07 06:29N 53°54' E 007°51'0 0.1
2018-Aug-07 05:59N 53°54' E 007°51'0 0.0
2018-Aug-07 05:26N 53°54' E 007°51'0 0.0
2018-Aug-07 04:59N 53°54' E 007°51'0 0.0
2018-Aug-07 04:29N 53°54' E 007°51'0 0.0
2018-Aug-07 03:56N 53°54' E 007°51'0 0.0
2018-Aug-07 03:26N 53°54' E 007°51'0 0.0
2018-Aug-07 02:59N 53°54' E 007°51'0 0.0
2018-Aug-07 02:29N 53°54' E 007°51'0 0.0
2018-Aug-07 01:59N 53°54' E 007°51'0 0.0
2018-Aug-07 01:29N 53°54' E 007°51'0 0.1
2018-Aug-07 00:56N 53°54' E 007°50'0 0.1
2018-Aug-07 00:23N 53°54' E 007°50'0 0.1
2018-Aug-06 23:59N 53°54' E 007°50'0 0.0
2018-Aug-06 23:29N 53°54' E 007°50'0 0.0
2018-Aug-06 22:59N 53°54' E 007°50'0 0.0
2018-Aug-06 22:29N 53°54' E 007°50'0 0.0
2018-Aug-06 21:59N 53°54' E 007°50'0 0.0
2018-Aug-06 21:26N 53°54' E 007°50'0 0.0
2018-Aug-06 20:59N 53°54' E 007°50'0 0.0
2018-Aug-06 20:29N 53°54' E 007°50'0 0.0
2018-Aug-06 19:56N 53°54' E 007°50'0 0.0
2018-Aug-06 19:29N 53°54' E 007°50'0 0.0
2018-Aug-06 18:59N 53°54' E 007°50'0 0.1
2018-Aug-06 18:29N 53°54' E 007°50'0 0.1
2018-Aug-06 17:56N 53°54' E 007°50'0 0.1
2018-Aug-06 17:29N 53°54' E 007°50'0 0.1
2018-Aug-06 16:56N 53°54' E 007°51'0 0.0
2018-Aug-06 16:20N 53°54' E 007°51'0 0.0
2018-Aug-06 14:02N 53°54' E 007°51'0 0.0
2018-Aug-06 13:59N 53°54' E 007°51'0 0.0
2018-Aug-06 13:29N 53°54' E 007°51'0 0.0
2018-Aug-06 12:56N 53°54' E 007°51'0 0.0
2018-Aug-06 12:18N 53°54' E 007°51'0 0.1
2018-Aug-06 11:53N 53°54' E 007°50'0 0.1
2018-Aug-06 11:26N 53°54' E 007°50'0 0.1
2018-Aug-06 10:59N 53°54' E 007°50'0 0.1
2018-Aug-06 10:29N 53°54' E 007°50'0 0.0
2018-Aug-06 09:59N 53°54' E 007°50'0 0.0
2018-Aug-06 09:29N 53°54' E 007°50'0 0.0
2018-Aug-06 08:59N 53°54' E 007°50'0 0.0
2018-Aug-06 08:26N 53°54' E 007°50'0 0.0
2018-Aug-06 07:59N 53°54' E 007°50'0 0.0
2018-Aug-06 07:17N 53°54' E 007°50'0 0.1
2018-Aug-06 06:53N 53°54' E 007°50'0 0.0
2018-Aug-06 06:26N 53°54' E 007°50'0 0.1
2018-Aug-06 05:59N 53°54' E 007°50'0 0.1
2018-Aug-06 05:29N 53°54' E 007°51'0 0.1
2018-Aug-06 04:59N 53°54' E 007°51'0 0.1
2018-Aug-06 04:29N 53°54' E 007°51'0 0.0
2018-Aug-06 03:59N 53°54' E 007°51'0 0.0
2018-Aug-06 03:23N 53°54' E 007°51'0 0.0
2018-Aug-06 02:59N 53°54' E 007°51'0 0.0
2018-Aug-06 02:29N 53°54' E 007°51'0 0.0
2018-Aug-06 01:59N 53°54' E 007°51'0 0.0
2018-Aug-06 01:29N 53°54' E 007°51'0 0.0
2018-Aug-06 00:59N 53°54' E 007°51'0 0.0
2018-Aug-06 00:29N 53°54' E 007°51'0 0.0
2018-Aug-05 23:59N 53°54' E 007°51'0 0.0
2018-Aug-05 23:29N 53°54' E 007°51'0 0.0
2018-Aug-05 22:59N 53°54' E 007°51'0 0.0
2018-Aug-05 22:29N 53°54' E 007°51'0 0.1
2018-Aug-05 21:59N 53°54' E 007°50'0 0.1
2018-Aug-05 21:20N 53°54' E 007°50'0 0.0
2018-Aug-05 20:59N 53°54' E 007°50'0 0.0
2018-Aug-05 20:29N 53°54' E 007°50'0 0.0
2018-Aug-05 19:59N 53°54' E 007°50'0 0.1
2018-Aug-05 19:29N 53°54' E 007°50'0 0.1
2018-Aug-05 18:59N 53°54' E 007°50'0 0.1
2018-Aug-05 18:29N 53°54' E 007°50'0 0.1
2018-Aug-05 17:59N 53°54' E 007°51'0 0.0
2018-Aug-05 17:26N 53°54' E 007°51'0 0.0
2018-Aug-05 16:59N 53°54' E 007°51'0 0.0
2018-Aug-05 16:23N 53°54' E 007°51'0 0.0
2018-Aug-05 15:59N 53°54' E 007°51'0 0.0
2018-Aug-05 15:20N 53°54' E 007°51'0 0.0
2018-Aug-05 14:53N 53°54' E 007°51'0 0.0
2018-Aug-05 14:29N 53°54' E 007°51'0 0.0
2018-Aug-05 13:29N 53°54' E 007°51'0 0.0
2018-Aug-05 12:59N 53°54' E 007°51'0 0.0
2018-Aug-05 12:29N 53°54' E 007°51'0 0.0
2018-Aug-05 11:59N 53°54' E 007°51'0 0.0
2018-Aug-05 11:26N 53°54' E 007°51'0 0.1
2018-Aug-05 10:56N 53°54' E 007°51'0 0.0
2018-Aug-05 10:29N 53°54' E 007°51'0 0.0
2018-Aug-05 09:59N 53°54' E 007°51'0 0.0
2018-Aug-05 09:29N 53°54' E 007°51'0 0.1
2018-Aug-05 08:59N 53°53' E 007°50'0 0.1
2018-Aug-05 08:29N 53°53' E 007°50'0 0.1
2018-Aug-05 07:59N 53°54' E 007°50'0 0.0
2018-Aug-05 07:29N 53°54' E 007°50'0 0.1
2018-Aug-05 06:59N 53°53' E 007°50'0 0.1
2018-Aug-05 06:29N 53°53' E 007°50'0 0.1
2018-Aug-05 05:59N 53°53' E 007°50'0 0.0
2018-Aug-05 05:26N 53°53' E 007°50'0 0.1
2018-Aug-05 04:59N 53°53' E 007°50'0 0.0
2018-Aug-05 04:26N 53°53' E 007°50'0 0.1
2018-Aug-05 03:59N 53°53' E 007°50'0 0.0
2018-Aug-05 03:29N 53°54' E 007°51'0 0.0
2018-Aug-05 02:59N 53°54' E 007°51'0 0.0
2018-Aug-05 02:29N 53°54' E 007°51'0 0.0
2018-Aug-05 01:56N 53°54' E 007°51'0 0.0
2018-Aug-05 01:23N 53°54' E 007°51'0 0.0
2018-Aug-05 00:59N 53°54' E 007°51'0 0.0
2018-Aug-05 00:29N 53°54' E 007°51'0 0.0
2018-Aug-04 23:59N 53°54' E 007°51'  

Dump ship's entire track history